sensor_id;sensor_type;location;lat;lon;timestamp;temperature;humidity
12847;DHT22;6492;48.128;8.320;2022-10-24T00:02:26;14.30;19.70
12847;DHT22;6492;48.128;8.320;2022-10-24T00:06:28;14.30;20.00
12847;DHT22;6492;48.128;8.320;2022-10-24T00:10:31;14.30;20.30
12847;DHT22;6492;48.128;8.320;2022-10-24T00:14:33;14.30;20.30
12847;DHT22;6492;48.128;8.320;2022-10-24T00:18:36;14.40;20.00
12847;DHT22;6492;48.128;8.320;2022-10-24T00:22:38;14.40;20.40
12847;DHT22;6492;48.128;8.320;2022-10-24T00:26:41;14.40;20.40
12847;DHT22;6492;48.128;8.320;2022-10-24T00:30:43;14.40;20.90
12847;DHT22;6492;48.128;8.320;2022-10-24T00:34:45;14.40;21.30
12847;DHT22;6492;48.128;8.320;2022-10-24T00:38:48;14.40;20.70
12847;DHT22;6492;48.128;8.320;2022-10-24T00:42:51;14.60;20.60
12847;DHT22;6492;48.128;8.320;2022-10-24T00:46:57;14.70;20.30
12847;DHT22;6492;48.128;8.320;2022-10-24T00:51:02;14.90;20.40
12847;DHT22;6492;48.128;8.320;2022-10-24T00:55:07;15.00;22.00
12847;DHT22;6492;48.128;8.320;2022-10-24T00:59:12;15.00;24.10
12847;DHT22;6492;48.128;8.320;2022-10-24T01:03:15;14.80;26.20
12847;DHT22;6492;48.128;8.320;2022-10-24T01:07:26;14.60;27.90
12847;DHT22;6492;48.128;8.320;2022-10-24T01:11:42;14.40;33.20
12847;DHT22;6492;48.128;8.320;2022-10-24T01:15:57;14.10;34.80
12847;DHT22;6492;48.128;8.320;2022-10-24T01:20:36;13.80;37.20
12847;DHT22;6492;48.128;8.320;2022-10-24T01:24:55;13.60;39.40
12847;DHT22;6492;48.128;8.320;2022-10-24T01:29:09;13.50;40.60
12847;DHT22;6492;48.128;8.320;2022-10-24T01:33:19;13.40;41.30
12847;DHT22;6492;48.128;8.320;2022-10-24T01:37:28;13.30;44.30
12847;DHT22;6492;48.128;8.320;2022-10-24T01:41:32;13.20;45.20
12847;DHT22;6492;48.128;8.320;2022-10-24T01:45:36;13.00;46.30
12847;DHT22;6492;48.128;8.320;2022-10-24T01:49:43;12.90;48.80
12847;DHT22;6492;48.128;8.320;2022-10-24T01:53:47;12.80;49.70
12847;DHT22;6492;48.128;8.320;2022-10-24T01:57:49;12.70;51.00
12847;DHT22;6492;48.128;8.320;2022-10-24T02:01:52;12.60;50.90
12847;DHT22;6492;48.128;8.320;2022-10-24T02:05:59;12.50;51.70
12847;DHT22;6492;48.128;8.320;2022-10-24T02:10:08;12.50;53.30
12847;DHT22;6492;48.128;8.320;2022-10-24T02:14:15;12.50;53.50
12847;DHT22;6492;48.128;8.320;2022-10-24T02:18:19;12.50;53.70
12847;DHT22;6492;48.128;8.320;2022-10-24T02:22:28;12.40;54.50
12847;DHT22;6492;48.128;8.320;2022-10-24T02:26:32;12.40;54.90
12847;DHT22;6492;48.128;8.320;2022-10-24T02:30:38;12.40;56.00
12847;DHT22;6492;48.128;8.320;2022-10-24T02:34:43;12.20;56.60
12847;DHT22;6492;48.128;8.320;2022-10-24T02:39:02;12.20;57.70
12847;DHT22;6492;48.128;8.320;2022-10-24T02:43:07;12.20;58.70
12847;DHT22;6492;48.128;8.320;2022-10-24T02:47:10;12.20;58.90
12847;DHT22;6492;48.128;8.320;2022-10-24T02:51:14;12.30;57.50
12847;DHT22;6492;48.128;8.320;2022-10-24T02:55:19;12.40;56.00
12847;DHT22;6492;48.128;8.320;2022-10-24T02:59:21;12.40;54.00
12847;DHT22;6492;48.128;8.320;2022-10-24T03:03:23;12.50;53.60
12847;DHT22;6492;48.128;8.320;2022-10-24T03:07:24;12.50;51.60
12847;DHT22;6492;48.128;8.320;2022-10-24T03:11:28;12.40;50.70
12847;DHT22;6492;48.128;8.320;2022-10-24T03:15:30;12.30;52.10
12847;DHT22;6492;48.128;8.320;2022-10-24T03:19:31;12.20;52.70
12847;DHT22;6492;48.128;8.320;2022-10-24T03:23:33;12.20;53.10
12847;DHT22;6492;48.128;8.320;2022-10-24T03:27:36;12.20;54.00
12847;DHT22;6492;48.128;8.320;2022-10-24T03:31:39;12.10;54.50
12847;DHT22;6492;48.128;8.320;2022-10-24T03:35:41;12.10;55.00
12847;DHT22;6492;48.128;8.320;2022-10-24T03:39:43;12.20;54.80
12847;DHT22;6492;48.128;8.320;2022-10-24T03:43:46;12.20;54.10
12847;DHT22;6492;48.128;8.320;2022-10-24T03:47:48;12.30;52.90
12847;DHT22;6492;48.128;8.320;2022-10-24T03:51:50;12.40;50.90
12847;DHT22;6492;48.128;8.320;2022-10-24T03:55:52;12.50;49.80
12847;DHT22;6492;48.128;8.320;2022-10-24T03:59:57;12.60;49.30
12847;DHT22;6492;48.128;8.320;2022-10-24T04:03:59;12.60;52.30
12847;DHT22;6492;48.128;8.320;2022-10-24T04:08:01;12.50;54.30
12847;DHT22;6492;48.128;8.320;2022-10-24T04:12:04;12.30;56.70
12847;DHT22;6492;48.128;8.320;2022-10-24T04:16:08;12.20;58.30
12847;DHT22;6492;48.128;8.320;2022-10-24T04:20:10;12.10;59.80
12847;DHT22;6492;48.128;8.320;2022-10-24T04:24:31;12.00;60.90
12847;DHT22;6492;48.128;8.320;2022-10-24T04:28:33;12.00;62.00
12847;DHT22;6492;48.128;8.320;2022-10-24T04:32:36;11.90;62.50
12847;DHT22;6492;48.128;8.320;2022-10-24T04:36:45;11.80;63.70
12847;DHT22;6492;48.128;8.320;2022-10-24T04:40:48;11.80;63.70
12847;DHT22;6492;48.128;8.320;2022-10-24T04:44:50;11.80;64.20
12847;DHT22;6492;48.128;8.320;2022-10-24T04:48:58;11.70;64.40
12847;DHT22;6492;48.128;8.320;2022-10-24T04:53:00;11.60;65.50
12847;DHT22;6492;48.128;8.320;2022-10-24T04:57:02;11.50;66.20
12847;DHT22;6492;48.128;8.320;2022-10-24T05:01:04;11.50;66.80
12847;DHT22;6492;48.128;8.320;2022-10-24T05:05:07;11.50;67.60
12847;DHT22;6492;48.128;8.320;2022-10-24T05:09:09;11.40;67.90
12847;DHT22;6492;48.128;8.320;2022-10-24T05:13:27;11.40;68.40
12847;DHT22;6492;48.128;8.320;2022-10-24T05:17:29;11.50;68.80
12847;DHT22;6492;48.128;8.320;2022-10-24T05:21:32;11.60;68.50
12847;DHT22;6492;48.128;8.320;2022-10-24T05:25:34;11.60;68.10
12847;DHT22;6492;48.128;8.320;2022-10-24T05:29:36;11.70;67.50
12847;DHT22;6492;48.128;8.320;2022-10-24T05:33:37;11.60;67.10
12847;DHT22;6492;48.128;8.320;2022-10-24T05:37:41;11.70;67.50
12847;DHT22;6492;48.128;8.320;2022-10-24T05:41:43;11.70;66.30
12847;DHT22;6492;48.128;8.320;2022-10-24T05:45:47;11.70;65.90
12847;DHT22;6492;48.128;8.320;2022-10-24T05:50:00;11.70;62.60
12847;DHT22;6492;48.128;8.320;2022-10-24T05:54:03;11.70;61.90
12847;DHT22;6492;48.128;8.320;2022-10-24T05:58:05;11.70;62.70
12847;DHT22;6492;48.128;8.320;2022-10-24T06:02:08;11.60;63.90
12847;DHT22;6492;48.128;8.320;2022-10-24T06:06:11;11.50;64.90
12847;DHT22;6492;48.128;8.320;2022-10-24T06:10:14;11.40;65.80
12847;DHT22;6492;48.128;8.320;2022-10-24T06:14:16;11.30;65.80
12847;DHT22;6492;48.128;8.320;2022-10-24T06:18:18;11.30;65.70
12847;DHT22;6492;48.128;8.320;2022-10-24T06:22:20;11.30;65.80
12847;DHT22;6492;48.128;8.320;2022-10-24T06:26:24;11.20;66.20
12847;DHT22;6492;48.128;8.320;2022-10-24T06:30:26;11.10;66.70
12847;DHT22;6492;48.128;8.320;2022-10-24T06:34:28;11.10;67.00
12847;DHT22;6492;48.128;8.320;2022-10-24T06:38:30;11.10;67.20
12847;DHT22;6492;48.128;8.320;2022-10-24T06:42:33;11.10;67.60
12847;DHT22;6492;48.128;8.320;2022-10-24T06:46:35;11.10;68.50
12847;DHT22;6492;48.128;8.320;2022-10-24T06:50:38;11.30;69.00
12847;DHT22;6492;48.128;8.320;2022-10-24T06:54:40;11.20;69.70
12847;DHT22;6492;48.128;8.320;2022-10-24T06:58:44;11.20;70.00
12847;DHT22;6492;48.128;8.320;2022-10-24T07:02:46;11.20;70.40
12847;DHT22;6492;48.128;8.320;2022-10-24T07:06:48;11.30;70.90
12847;DHT22;6492;48.128;8.320;2022-10-24T07:10:49;11.30;71.00
12847;DHT22;6492;48.128;8.320;2022-10-24T07:14:53;11.30;71.30
12847;DHT22;6492;48.128;8.320;2022-10-24T07:18:55;11.40;70.40
12847;DHT22;6492;48.128;8.320;2022-10-24T07:23:04;11.50;69.70
12847;DHT22;6492;48.128;8.320;2022-10-24T07:27:06;11.50;64.10
12847;DHT22;6492;48.128;8.320;2022-10-24T07:31:09;11.60;63.50
12847;DHT22;6492;48.128;8.320;2022-10-24T07:35:13;11.70;63.30
12847;DHT22;6492;48.128;8.320;2022-10-24T07:39:15;11.90;62.30
12847;DHT22;6492;48.128;8.320;2022-10-24T07:43:17;11.90;62.10
12847;DHT22;6492;48.128;8.320;2022-10-24T07:47:20;11.90;59.00
12847;DHT22;6492;48.128;8.320;2022-10-24T07:51:22;11.90;57.10
12847;DHT22;6492;48.128;8.320;2022-10-24T07:55:27;11.90;57.90
12847;DHT22;6492;48.128;8.320;2022-10-24T07:59:29;11.90;59.20
12847;DHT22;6492;48.128;8.320;2022-10-24T08:03:32;12.30;60.60
12847;DHT22;6492;48.128;8.320;2022-10-24T08:07:34;11.70;61.30
12847;DHT22;6492;48.128;8.320;2022-10-24T08:11:36;11.60;62.30
12847;DHT22;6492;48.128;8.320;2022-10-24T08:15:39;11.60;63.10
12847;DHT22;6492;48.128;8.320;2022-10-24T08:19:42;11.70;63.80
12847;DHT22;6492;48.128;8.320;2022-10-24T08:23:46;11.60;64.60
12847;DHT22;6492;48.128;8.320;2022-10-24T08:27:48;11.60;65.30
12847;DHT22;6492;48.128;8.320;2022-10-24T08:31:52;11.50;66.00
12847;DHT22;6492;48.128;8.320;2022-10-24T08:35:57;11.50;66.90
12847;DHT22;6492;48.128;8.320;2022-10-24T08:40:00;11.50;67.80
12847;DHT22;6492;48.128;8.320;2022-10-24T08:44:03;11.50;68.00
12847;DHT22;6492;48.128;8.320;2022-10-24T08:48:10;11.40;67.50
12847;DHT22;6492;48.128;8.320;2022-10-24T08:52:22;11.40;66.10
12847;DHT22;6492;48.128;8.320;2022-10-24T08:56:27;11.40;66.20
12847;DHT22;6492;48.128;8.320;2022-10-24T09:00:32;11.50;66.60
12847;DHT22;6492;48.128;8.320;2022-10-24T09:04:40;11.40;66.80
12847;DHT22;6492;48.128;8.320;2022-10-24T09:08:49;11.50;67.40
12847;DHT22;6492;48.128;8.320;2022-10-24T09:12:51;11.40;67.30
12847;DHT22;6492;48.128;8.320;2022-10-24T09:16:56;11.40;67.40
12847;DHT22;6492;48.128;8.320;2022-10-24T09:20:59;11.40;68.20
12847;DHT22;6492;48.128;8.320;2022-10-24T09:25:12;11.40;68.60
12847;DHT22;6492;48.128;8.320;2022-10-24T09:29:15;11.40;68.30
12847;DHT22;6492;48.128;8.320;2022-10-24T09:33:24;11.40;67.70
12847;DHT22;6492;48.128;8.320;2022-10-24T09:37:36;11.40;67.70
12847;DHT22;6492;48.128;8.320;2022-10-24T09:41:45;11.40;67.30
12847;DHT22;6492;48.128;8.320;2022-10-24T09:45:48;11.50;67.90
12847;DHT22;6492;48.128;8.320;2022-10-24T09:49:51;11.50;67.40
12847;DHT22;6492;48.128;8.320;2022-10-24T09:54:03;11.50;67.40
12847;DHT22;6492;48.128;8.320;2022-10-24T09:58:18;11.50;67.90
12847;DHT22;6492;48.128;8.320;2022-10-24T10:02:24;11.50;68.50
12847;DHT22;6492;48.128;8.320;2022-10-24T10:06:27;11.60;68.20
12847;DHT22;6492;48.128;8.320;2022-10-24T10:10:31;11.60;67.20
12847;DHT22;6492;48.128;8.320;2022-10-24T10:14:39;11.50;66.60
12847;DHT22;6492;48.128;8.320;2022-10-24T10:18:43;11.50;67.10
12847;DHT22;6492;48.128;8.320;2022-10-24T10:22:47;11.50;67.70
12847;DHT22;6492;48.128;8.320;2022-10-24T10:26:49;11.50;67.50
12847;DHT22;6492;48.128;8.320;2022-10-24T10:30:56;11.50;68.30
12847;DHT22;6492;48.128;8.320;2022-10-24T10:35:03;11.50;68.20
12847;DHT22;6492;48.128;8.320;2022-10-24T10:39:23;11.50;68.30
12847;DHT22;6492;48.128;8.320;2022-10-24T10:43:32;11.50;68.40
12847;DHT22;6492;48.128;8.320;2022-10-24T10:47:45;11.60;68.20
12847;DHT22;6492;48.128;8.320;2022-10-24T10:51:51;11.60;66.30
12847;DHT22;6492;48.128;8.320;2022-10-24T10:56:00;11.70;65.80
12847;DHT22;6492;48.128;8.320;2022-10-24T11:00:09;11.70;64.70
12847;DHT22;6492;48.128;8.320;2022-10-24T11:04:22;11.80;62.50
12847;DHT22;6492;48.128;8.320;2022-10-24T11:08:48;11.80;62.20
12847;DHT22;6492;48.128;8.320;2022-10-24T11:12:51;11.90;62.70
12847;DHT22;6492;48.128;8.320;2022-10-24T11:16:58;12.10;63.40
12847;DHT22;6492;48.128;8.320;2022-10-24T11:21:06;12.20;62.90
12847;DHT22;6492;48.128;8.320;2022-10-24T11:25:19;12.30;61.20
12847;DHT22;6492;48.128;8.320;2022-10-24T11:29:27;12.40;61.10
12847;DHT22;6492;48.128;8.320;2022-10-24T11:33:38;12.40;60.90
12847;DHT22;6492;48.128;8.320;2022-10-24T11:37:48;12.50;59.70
12847;DHT22;6492;48.128;8.320;2022-10-24T11:41:53;12.50;55.10
12847;DHT22;6492;48.128;8.320;2022-10-24T11:46:03;12.70;56.20
12847;DHT22;6492;48.128;8.320;2022-10-24T11:50:19;12.80;54.30
12847;DHT22;6492;48.128;8.320;2022-10-24T11:54:32;13.00;55.20
12847;DHT22;6492;48.128;8.320;2022-10-24T11:58:38;13.20;53.70
12847;DHT22;6492;48.128;8.320;2022-10-24T12:03:12;13.30;52.80
12847;DHT22;6492;48.128;8.320;2022-10-24T12:12:09;13.40;51.20
12847;DHT22;6492;48.128;8.320;2022-10-24T12:16:20;13.60;51.70
12847;DHT22;6492;48.128;8.320;2022-10-24T12:20:26;13.90;52.50
12847;DHT22;6492;48.128;8.320;2022-10-24T12:24:30;14.30;50.10
12847;DHT22;6492;48.128;8.320;2022-10-24T12:28:34;14.40;46.50
12847;DHT22;6492;48.128;8.320;2022-10-24T12:32:40;14.50;40.60
12847;DHT22;6492;48.128;8.320;2022-10-24T12:37:05;14.70;43.00
12847;DHT22;6492;48.128;8.320;2022-10-24T12:41:38;14.60;36.90
12847;DHT22;6492;48.128;8.320;2022-10-24T12:45:42;14.50;39.40
12847;DHT22;6492;48.128;8.320;2022-10-24T12:49:44;14.70;39.90
12847;DHT22;6492;48.128;8.320;2022-10-24T12:58:21;14.80;38.80
12847;DHT22;6492;48.128;8.320;2022-10-24T13:02:47;15.10;38.90
12847;DHT22;6492;48.128;8.320;2022-10-24T13:07:06;15.20;35.80
12847;DHT22;6492;48.128;8.320;2022-10-24T13:11:26;15.30;37.20
12847;DHT22;6492;48.128;8.320;2022-10-24T13:15:40;15.30;34.60
12847;DHT22;6492;48.128;8.320;2022-10-24T13:19:46;15.20;36.70
12847;DHT22;6492;48.128;8.320;2022-10-24T13:23:48;15.20;38.00
12847;DHT22;6492;48.128;8.320;2022-10-24T13:32:30;15.30;37.70
12847;DHT22;6492;48.128;8.320;2022-10-24T13:36:36;15.50;37.80
12847;DHT22;6492;48.128;8.320;2022-10-24T13:40:41;15.50;36.60
12847;DHT22;6492;48.128;8.320;2022-10-24T13:44:46;15.50;34.80
12847;DHT22;6492;48.128;8.320;2022-10-24T13:48:51;15.40;37.20
12847;DHT22;6492;48.128;8.320;2022-10-24T13:52:57;15.50;37.10
12847;DHT22;6492;48.128;8.320;2022-10-24T13:57:00;15.80;37.00
12847;DHT22;6492;48.128;8.320;2022-10-24T14:01:05;16.30;37.00
12847;DHT22;6492;48.128;8.320;2022-10-24T14:05:18;17.00;33.80
12847;DHT22;6492;48.128;8.320;2022-10-24T14:09:22;17.60;28.10
12847;DHT22;6492;48.128;8.320;2022-10-24T14:13:24;18.00;24.10
12847;DHT22;6492;48.128;8.320;2022-10-24T14:17:28;18.10;22.80
12847;DHT22;6492;48.128;8.320;2022-10-24T14:21:38;17.60;22.80
12847;DHT22;6492;48.128;8.320;2022-10-24T14:25:42;16.90;25.00
12847;DHT22;6492;48.128;8.320;2022-10-24T14:29:58;16.20;24.30
12847;DHT22;6492;48.128;8.320;2022-10-24T14:34:02;15.80;27.10
12847;DHT22;6492;48.128;8.320;2022-10-24T14:38:05;15.50;28.10
12847;DHT22;6492;48.128;8.320;2022-10-24T14:42:13;15.30;29.20
12847;DHT22;6492;48.128;8.320;2022-10-24T14:46:35;15.10;29.50
12847;DHT22;6492;48.128;8.320;2022-10-24T14:50:39;14.70;31.80
12847;DHT22;6492;48.128;8.320;2022-10-24T14:54:49;14.40;34.80
12847;DHT22;6492;48.128;8.320;2022-10-24T14:58:55;14.30;36.80
12847;DHT22;6492;48.128;8.320;2022-10-24T15:02:57;14.00;38.90
12847;DHT22;6492;48.128;8.320;2022-10-24T15:07:12;13.70;40.50
12847;DHT22;6492;48.128;8.320;2022-10-24T15:11:18;13.40;42.50
12847;DHT22;6492;48.128;8.320;2022-10-24T15:15:26;13.20;46.00
12847;DHT22;6492;48.128;8.320;2022-10-24T15:19:28;13.20;47.90
12847;DHT22;6492;48.128;8.320;2022-10-24T15:23:32;13.10;48.90
12847;DHT22;6492;48.128;8.320;2022-10-24T15:27:39;13.20;48.70
12847;DHT22;6492;48.128;8.320;2022-10-24T15:31:44;13.20;47.70
12847;DHT22;6492;48.128;8.320;2022-10-24T15:35:46;13.20;47.70
12847;DHT22;6492;48.128;8.320;2022-10-24T15:39:48;13.20;47.10
12847;DHT22;6492;48.128;8.320;2022-10-24T15:43:50;13.10;46.80
12847;DHT22;6492;48.128;8.320;2022-10-24T15:47:53;12.90;47.80
12847;DHT22;6492;48.128;8.320;2022-10-24T15:51:56;12.70;48.50
12847;DHT22;6492;48.128;8.320;2022-10-24T15:55:59;12.40;50.40
12847;DHT22;6492;48.128;8.320;2022-10-24T16:00:00;12.10;53.20
12847;DHT22;6492;48.128;8.320;2022-10-24T16:04:04;11.80;54.50
12847;DHT22;6492;48.128;8.320;2022-10-24T16:08:11;11.60;56.40
12847;DHT22;6492;48.128;8.320;2022-10-24T16:12:14;11.40;59.20
12847;DHT22;6492;48.128;8.320;2022-10-24T16:16:15;11.20;61.00
12847;DHT22;6492;48.128;8.320;2022-10-24T16:20:19;11.00;62.40
12847;DHT22;6492;48.128;8.320;2022-10-24T16:24:21;10.80;63.20
12847;DHT22;6492;48.128;8.320;2022-10-24T16:28:23;10.70;64.10
12847;DHT22;6492;48.128;8.320;2022-10-24T16:32:25;10.60;66.80
12847;DHT22;6492;48.128;8.320;2022-10-24T16:36:30;10.50;68.60
12847;DHT22;6492;48.128;8.320;2022-10-24T16:40:37;10.50;69.40
12847;DHT22;6492;48.128;8.320;2022-10-24T16:44:39;10.50;70.50
12847;DHT22;6492;48.128;8.320;2022-10-24T16:48:43;10.40;71.00
12847;DHT22;6492;48.128;8.320;2022-10-24T16:52:46;10.30;72.00
12847;DHT22;6492;48.128;8.320;2022-10-24T16:56:54;10.20;72.40
12847;DHT22;6492;48.128;8.320;2022-10-24T17:01:02;10.20;73.20
12847;DHT22;6492;48.128;8.320;2022-10-24T17:05:13;10.10;74.00
12847;DHT22;6492;48.128;8.320;2022-10-24T17:09:16;10.20;75.30
12847;DHT22;6492;48.128;8.320;2022-10-24T17:13:18;10.10;75.30
12847;DHT22;6492;48.128;8.320;2022-10-24T17:17:20;10.00;74.90
12847;DHT22;6492;48.128;8.320;2022-10-24T17:21:22;9.90;74.90
12847;DHT22;6492;48.128;8.320;2022-10-24T17:25:32;9.80;75.10
12847;DHT22;6492;48.128;8.320;2022-10-24T17:29:43;9.70;75.20
12847;DHT22;6492;48.128;8.320;2022-10-24T17:33:45;9.60;74.80
12847;DHT22;6492;48.128;8.320;2022-10-24T17:38:17;9.40;75.00
12847;DHT22;6492;48.128;8.320;2022-10-24T17:42:26;9.50;75.90
12847;DHT22;6492;48.128;8.320;2022-10-24T17:46:29;9.50;76.30
12847;DHT22;6492;48.128;8.320;2022-10-24T17:50:38;9.40;76.30
12847;DHT22;6492;48.128;8.320;2022-10-24T17:54:39;9.40;76.70
12847;DHT22;6492;48.128;8.320;2022-10-24T17:58:43;9.40;77.10
12847;DHT22;6492;48.128;8.320;2022-10-24T18:02:50;9.40;77.40
12847;DHT22;6492;48.128;8.320;2022-10-24T18:06:52;9.40;77.20
12847;DHT22;6492;48.128;8.320;2022-10-24T18:10:59;9.30;77.20
12847;DHT22;6492;48.128;8.320;2022-10-24T18:15:08;9.30;77.30
12847;DHT22;6492;48.128;8.320;2022-10-24T18:19:10;9.20;77.40
12847;DHT22;6492;48.128;8.320;2022-10-24T18:23:20;9.20;77.30
12847;DHT22;6492;48.128;8.320;2022-10-24T18:27:46;9.00;76.80
12847;DHT22;6492;48.128;8.320;2022-10-24T18:31:49;8.80;77.00
12847;DHT22;6492;48.128;8.320;2022-10-24T18:35:51;8.80;77.40
12847;DHT22;6492;48.128;8.320;2022-10-24T18:40:04;8.80;77.70
12847;DHT22;6492;48.128;8.320;2022-10-24T18:44:20;8.80;78.00
12847;DHT22;6492;48.128;8.320;2022-10-24T18:48:24;8.80;78.00
12847;DHT22;6492;48.128;8.320;2022-10-24T18:52:35;8.60;77.80
12847;DHT22;6492;48.128;8.320;2022-10-24T18:56:38;8.50;77.80
12847;DHT22;6492;48.128;8.320;2022-10-24T19:00:40;8.60;78.30
12847;DHT22;6492;48.128;8.320;2022-10-24T19:04:53;8.60;78.40
12847;DHT22;6492;48.128;8.320;2022-10-24T19:09:03;8.50;78.40
12847;DHT22;6492;48.128;8.320;2022-10-24T19:13:05;8.50;78.60
12847;DHT22;6492;48.128;8.320;2022-10-24T19:17:08;8.50;78.70
12847;DHT22;6492;48.128;8.320;2022-10-24T19:21:14;8.40;78.50
12847;DHT22;6492;48.128;8.320;2022-10-24T19:25:16;8.20;78.30
12847;DHT22;6492;48.128;8.320;2022-10-24T19:29:18;8.20;78.40
12847;DHT22;6492;48.128;8.320;2022-10-24T19:33:21;8.30;78.90
12847;DHT22;6492;48.128;8.320;2022-10-24T19:37:28;8.30;79.10
12847;DHT22;6492;48.128;8.320;2022-10-24T19:41:30;8.40;79.40
12847;DHT22;6492;48.128;8.320;2022-10-24T19:45:34;8.60;79.70
12847;DHT22;6492;48.128;8.320;2022-10-24T19:49:36;8.90;80.20
12847;DHT22;6492;48.128;8.320;2022-10-24T19:53:40;8.90;80.30
12847;DHT22;6492;48.128;8.320;2022-10-24T19:57:42;9.00;80.20
12847;DHT22;6492;48.128;8.320;2022-10-24T20:01:44;9.00;79.60
12847;DHT22;6492;48.128;8.320;2022-10-24T20:05:46;9.00;78.50
12847;DHT22;6492;48.128;8.320;2022-10-24T20:09:49;9.10;77.70
12847;DHT22;6492;48.128;8.320;2022-10-24T20:14:03;9.00;76.90
12847;DHT22;6492;48.128;8.320;2022-10-24T20:18:05;9.00;76.70
12847;DHT22;6492;48.128;8.320;2022-10-24T20:22:07;8.90;76.70
12847;DHT22;6492;48.128;8.320;2022-10-24T20:26:15;8.80;76.30
12847;DHT22;6492;48.128;8.320;2022-10-24T20:30:17;8.70;76.00
12847;DHT22;6492;48.128;8.320;2022-10-24T20:34:19;8.60;76.00
12847;DHT22;6492;48.128;8.320;2022-10-24T20:38:21;8.50;75.90
12847;DHT22;6492;48.128;8.320;2022-10-24T20:42:24;8.50;76.10
12847;DHT22;6492;48.128;8.320;2022-10-24T20:46:27;8.50;76.50
12847;DHT22;6492;48.128;8.320;2022-10-24T20:50:29;8.50;76.90
12847;DHT22;6492;48.128;8.320;2022-10-24T20:54:42;8.40;76.40
12847;DHT22;6492;48.128;8.320;2022-10-24T20:58:45;8.20;76.10
12847;DHT22;6492;48.128;8.320;2022-10-24T21:03:00;8.10;76.30
12847;DHT22;6492;48.128;8.320;2022-10-24T21:07:02;8.10;76.60
12847;DHT22;6492;48.128;8.320;2022-10-24T21:11:05;8.00;77.10
12847;DHT22;6492;48.128;8.320;2022-10-24T21:15:09;8.00;77.50
12847;DHT22;6492;48.128;8.320;2022-10-24T21:19:11;7.90;77.50
12847;DHT22;6492;48.128;8.320;2022-10-24T21:23:12;7.80;77.30
12847;DHT22;6492;48.128;8.320;2022-10-24T21:27:14;7.80;77.80
12847;DHT22;6492;48.128;8.320;2022-10-24T21:31:19;7.80;78.20
12847;DHT22;6492;48.128;8.320;2022-10-24T21:35:21;7.70;78.30
12847;DHT22;6492;48.128;8.320;2022-10-24T21:39:22;7.70;78.50
12847;DHT22;6492;48.128;8.320;2022-10-24T21:43:24;7.70;78.70
12847;DHT22;6492;48.128;8.320;2022-10-24T21:47:28;7.80;79.00
12847;DHT22;6492;48.128;8.320;2022-10-24T21:51:31;7.80;79.30
12847;DHT22;6492;48.128;8.320;2022-10-24T21:55:33;7.80;79.20
12847;DHT22;6492;48.128;8.320;2022-10-24T21:59:35;7.70;79.30
12847;DHT22;6492;48.128;8.320;2022-10-24T22:03:40;7.70;79.30
12847;DHT22;6492;48.128;8.320;2022-10-24T22:07:42;7.80;79.50
12847;DHT22;6492;48.128;8.320;2022-10-24T22:11:44;7.70;79.50
12847;DHT22;6492;48.128;8.320;2022-10-24T22:15:46;7.70;79.60
12847;DHT22;6492;48.128;8.320;2022-10-24T22:19:49;7.60;79.50
12847;DHT22;6492;48.128;8.320;2022-10-24T22:24:02;7.60;79.60
12847;DHT22;6492;48.128;8.320;2022-10-24T22:28:04;7.80;79.90
12847;DHT22;6492;48.128;8.320;2022-10-24T22:32:10;7.90;80.00
12847;DHT22;6492;48.128;8.320;2022-10-24T22:36:21;7.90;80.10
12847;DHT22;6492;48.128;8.320;2022-10-24T22:40:26;7.90;80.10
12847;DHT22;6492;48.128;8.320;2022-10-24T22:44:28;7.80;80.00
12847;DHT22;6492;48.128;8.320;2022-10-24T22:48:33;7.90;80.90
12847;DHT22;6492;48.128;8.320;2022-10-24T22:52:38;8.00;80.10
12847;DHT22;6492;48.128;8.320;2022-10-24T22:56:41;8.00;80.20
12847;DHT22;6492;48.128;8.320;2022-10-24T23:00:43;8.00;80.20
12847;DHT22;6492;48.128;8.320;2022-10-24T23:04:53;7.90;80.20
12847;DHT22;6492;48.128;8.320;2022-10-24T23:08:59;7.90;80.20
12847;DHT22;6492;48.128;8.320;2022-10-24T23:13:01;7.90;80.30
12847;DHT22;6492;48.128;8.320;2022-10-24T23:17:04;7.80;80.20
12847;DHT22;6492;48.128;8.320;2022-10-24T23:21:11;7.80;81.00
12847;DHT22;6492;48.128;8.320;2022-10-24T23:25:18;7.90;80.20
12847;DHT22;6492;48.128;8.320;2022-10-24T23:29:28;7.90;80.30
12847;DHT22;6492;48.128;8.320;2022-10-24T23:33:30;7.80;80.20
12847;DHT22;6492;48.128;8.320;2022-10-24T23:37:41;7.80;80.20
12847;DHT22;6492;48.128;8.320;2022-10-24T23:41:45;7.70;80.20
12847;DHT22;6492;48.128;8.320;2022-10-24T23:45:52;7.70;80.30
12847;DHT22;6492;48.128;8.320;2022-10-24T23:49:59;7.60;80.10
12847;DHT22;6492;48.128;8.320;2022-10-24T23:54:07;7.60;80.10
12847;DHT22;6492;48.128;8.320;2022-10-24T23:58:11;7.60;80.10
